Terminal Aerodrome Forecast
Issued by NWS

Home | Current Version | Previous Version | Text Only | Print | Product List | Glossary On
Versions: 1 2 3 4 5 6 7 8 9 10 11 12 13 14 15 16 17 18 19
244
FTUS43 KOAX 301720
TAFCDR
TAF
KCDR 301720Z 3018/3118 22006KT P6SM SCT120
     FM302000 16008KT P6SM SCT050
     FM302200 13010KT P6SM VCTS SCT060CB BKN100
      TEMPO 3022/3102 VRB20G40KT 5SM TSRA BKN050CB
     FM310300 17015G25KT P6SM SCT100=

USA.gov is the U.S. government's official web portal to all federal, state and local government web resources and services.